sensor_id;sensor_type;location;lat;lon;timestamp;P1;durP1;ratioP1;P2;durP2;ratioP2
9729;SDS011;4904;49.152;11.004;2023-05-14T00:01:32;8.25;;;7.22;;
9729;SDS011;4904;49.152;11.004;2023-05-14T00:04:00;8.15;;;7.35;;
9729;SDS011;4904;49.152;11.004;2023-05-14T00:06:26;7.80;;;7.00;;
9729;SDS011;4904;49.152;11.004;2023-05-14T00:08:53;8.95;;;7.30;;
9729;SDS011;4904;49.152;11.004;2023-05-14T00:11:21;7.97;;;7.22;;
9729;SDS011;4904;49.152;11.004;2023-05-14T00:13:48;8.57;;;7.68;;
9729;SDS011;4904;49.152;11.004;2023-05-14T00:16:16;7.68;;;6.70;;
9729;SDS011;4904;49.152;11.004;2023-05-14T00:18:43;6.97;;;6.38;;
9729;SDS011;4904;49.152;11.004;2023-05-14T00:21:10;6.63;;;6.05;;
9729;SDS011;4904;49.152;11.004;2023-05-14T00:23:37;6.90;;;6.30;;
9729;SDS011;4904;49.152;11.004;2023-05-14T00:26:04;6.93;;;6.22;;
9729;SDS011;4904;49.152;11.004;2023-05-14T00:28:31;7.63;;;6.93;;
9729;SDS011;4904;49.152;11.004;2023-05-14T00:30:57;8.80;;;7.88;;
9729;SDS011;4904;49.152;11.004;2023-05-14T00:33:26;9.57;;;7.30;;
9729;SDS011;4904;49.152;11.004;2023-05-14T00:35:53;7.30;;;6.60;;
9729;SDS011;4904;49.152;11.004;2023-05-14T00:38:19;7.35;;;6.63;;
9729;SDS011;4904;49.152;11.004;2023-05-14T00:40:48;6.72;;;6.03;;
9729;SDS011;4904;49.152;11.004;2023-05-14T00:43:16;8.15;;;6.00;;
9729;SDS011;4904;49.152;11.004;2023-05-14T00:45:43;6.68;;;5.93;;
9729;SDS011;4904;49.152;11.004;2023-05-14T00:48:10;7.63;;;6.78;;
9729;SDS011;4904;49.152;11.004;2023-05-14T00:50:39;7.40;;;6.70;;
9729;SDS011;4904;49.152;11.004;2023-05-14T00:53:07;8.35;;;7.03;;
9729;SDS011;4904;49.152;11.004;2023-05-14T00:55:34;7.00;;;6.30;;
9729;SDS011;4904;49.152;11.004;2023-05-14T00:58:03;6.70;;;6.10;;
9729;SDS011;4904;49.152;11.004;2023-05-14T01:00:32;8.00;;;6.55;;
9729;SDS011;4904;49.152;11.004;2023-05-14T01:02:59;9.05;;;6.25;;
9729;SDS011;4904;49.152;11.004;2023-05-14T01:05:27;7.30;;;6.60;;
9729;SDS011;4904;49.152;11.004;2023-05-14T01:08:00;6.95;;;5.45;;
9729;SDS011;4904;49.152;11.004;2023-05-14T01:10:34;6.60;;;6.07;;
9729;SDS011;4904;49.152;11.004;2023-05-14T01:13:11;7.22;;;5.82;;
9729;SDS011;4904;49.152;11.004;2023-05-14T01:15:45;6.95;;;6.25;;
9729;SDS011;4904;49.152;11.004;2023-05-14T01:18:13;7.65;;;6.20;;
9729;SDS011;4904;49.152;11.004;2023-05-14T01:20:43;7.38;;;6.68;;
9729;SDS011;4904;49.152;11.004;2023-05-14T01:23:11;9.02;;;7.03;;
9729;SDS011;4904;49.152;11.004;2023-05-14T01:25:38;7.68;;;6.97;;
9729;SDS011;4904;49.152;11.004;2023-05-14T01:28:08;7.65;;;6.95;;
9729;SDS011;4904;49.152;11.004;2023-05-14T01:30:44;7.85;;;6.88;;
9729;SDS011;4904;49.152;11.004;2023-05-14T01:33:15;7.68;;;6.97;;
9729;SDS011;4904;49.152;11.004;2023-05-14T01:35:43;7.47;;;6.78;;
9729;SDS011;4904;49.152;11.004;2023-05-14T01:38:12;6.60;;;6.00;;
9729;SDS011;4904;49.152;11.004;2023-05-14T01:40:41;8.05;;;6.40;;
9729;SDS011;4904;49.152;11.004;2023-05-14T01:43:10;8.98;;;7.22;;
9729;SDS011;4904;49.152;11.004;2023-05-14T01:45:37;7.78;;;7.05;;
9729;SDS011;4904;49.152;11.004;2023-05-14T01:48:04;8.35;;;6.63;;
9729;SDS011;4904;49.152;11.004;2023-05-14T01:50:31;8.52;;;7.63;;
9729;SDS011;4904;49.152;11.004;2023-05-14T01:52:58;7.70;;;6.75;;
9729;SDS011;4904;49.152;11.004;2023-05-14T01:55:26;7.05;;;6.38;;
9729;SDS011;4904;49.152;11.004;2023-05-14T01:57:53;7.00;;;6.28;;
9729;SDS011;4904;49.152;11.004;2023-05-14T02:00:21;7.38;;;6.68;;
9729;SDS011;4904;49.152;11.004;2023-05-14T02:02:49;6.93;;;6.32;;
9729;SDS011;4904;49.152;11.004;2023-05-14T02:05:16;7.53;;;6.82;;
9729;SDS011;4904;49.152;11.004;2023-05-14T02:07:43;6.68;;;6.07;;
9729;SDS011;4904;49.152;11.004;2023-05-14T02:10:10;7.18;;;6.55;;
9729;SDS011;4904;49.152;11.004;2023-05-14T02:12:38;7.90;;;7.10;;
9729;SDS011;4904;49.152;11.004;2023-05-14T02:15:05;7.88;;;7.07;;
9729;SDS011;4904;49.152;11.004;2023-05-14T02:17:34;6.97;;;6.32;;
9729;SDS011;4904;49.152;11.004;2023-05-14T02:20:02;8.23;;;6.95;;
9729;SDS011;4904;49.152;11.004;2023-05-14T02:22:29;7.07;;;6.38;;
9729;SDS011;4904;49.152;11.004;2023-05-14T02:24:56;6.57;;;5.97;;
9729;SDS011;4904;49.152;11.004;2023-05-14T02:27:22;8.32;;;5.95;;
9729;SDS011;4904;49.152;11.004;2023-05-14T02:29:51;8.10;;;6.00;;
9729;SDS011;4904;49.152;11.004;2023-05-14T02:32:18;7.65;;;6.45;;
9729;SDS011;4904;49.152;11.004;2023-05-14T02:34:44;9.00;;;7.05;;
9729;SDS011;4904;49.152;11.004;2023-05-14T02:37:11;7.13;;;6.45;;
9729;SDS011;4904;49.152;11.004;2023-05-14T02:39:38;8.18;;;6.47;;
9729;SDS011;4904;49.152;11.004;2023-05-14T02:42:05;6.88;;;6.28;;
9729;SDS011;4904;49.152;11.004;2023-05-14T02:44:32;6.22;;;5.63;;
9729;SDS011;4904;49.152;11.004;2023-05-14T02:47:00;6.80;;;6.10;;
9729;SDS011;4904;49.152;11.004;2023-05-14T02:49:27;6.63;;;5.78;;
9729;SDS011;4904;49.152;11.004;2023-05-14T02:51:54;7.47;;;5.93;;
9729;SDS011;4904;49.152;11.004;2023-05-14T02:54:21;6.18;;;5.68;;
9729;SDS011;4904;49.152;11.004;2023-05-14T02:56:48;8.05;;;5.88;;
9729;SDS011;4904;49.152;11.004;2023-05-14T02:59:15;7.95;;;5.90;;
9729;SDS011;4904;49.152;11.004;2023-05-14T03:01:42;6.50;;;5.60;;
9729;SDS011;4904;49.152;11.004;2023-05-14T03:04:10;6.88;;;6.15;;
9729;SDS011;4904;49.152;11.004;2023-05-14T03:06:37;6.97;;;6.22;;
9729;SDS011;4904;49.152;11.004;2023-05-14T03:09:04;6.93;;;6.30;;
9729;SDS011;4904;49.152;11.004;2023-05-14T03:11:31;7.43;;;5.93;;
9729;SDS011;4904;49.152;11.004;2023-05-14T03:13:58;7.53;;;6.20;;
9729;SDS011;4904;49.152;11.004;2023-05-14T03:16:25;6.82;;;6.13;;
9729;SDS011;4904;49.152;11.004;2023-05-14T03:18:52;7.43;;;6.72;;
9729;SDS011;4904;49.152;11.004;2023-05-14T03:21:20;8.10;;;6.95;;
9729;SDS011;4904;49.152;11.004;2023-05-14T03:23:47;9.13;;;6.05;;
9729;SDS011;4904;49.152;11.004;2023-05-14T03:26:13;6.88;;;5.90;;
9729;SDS011;4904;49.152;11.004;2023-05-14T03:28:40;7.25;;;6.60;;
9729;SDS011;4904;49.152;11.004;2023-05-14T03:31:07;9.23;;;6.32;;
9729;SDS011;4904;49.152;11.004;2023-05-14T03:33:34;7.20;;;6.50;;
9729;SDS011;4904;49.152;11.004;2023-05-14T03:36:01;6.75;;;6.15;;
9729;SDS011;4904;49.152;11.004;2023-05-14T03:38:29;8.27;;;7.47;;
9729;SDS011;4904;49.152;11.004;2023-05-14T03:40:56;8.45;;;7.22;;
9729;SDS011;4904;49.152;11.004;2023-05-14T03:43:23;7.10;;;6.47;;
9729;SDS011;4904;49.152;11.004;2023-05-14T03:45:50;6.32;;;5.78;;
9729;SDS011;4904;49.152;11.004;2023-05-14T03:48:17;6.43;;;5.93;;
9729;SDS011;4904;49.152;11.004;2023-05-14T03:50:44;8.77;;;6.03;;
9729;SDS011;4904;49.152;11.004;2023-05-14T03:53:11;6.57;;;5.97;;
9729;SDS011;4904;49.152;11.004;2023-05-14T03:55:39;6.38;;;5.78;;
9729;SDS011;4904;49.152;11.004;2023-05-14T03:58:06;6.80;;;6.10;;
9729;SDS011;4904;49.152;11.004;2023-05-14T04:00:37;5.95;;;5.45;;
9729;SDS011;4904;49.152;11.004;2023-05-14T04:03:05;7.15;;;6.35;;
9729;SDS011;4904;49.152;11.004;2023-05-14T04:05:32;7.35;;;6.65;;
9729;SDS011;4904;49.152;11.004;2023-05-14T04:07:59;7.53;;;6.72;;
9729;SDS011;4904;49.152;11.004;2023-05-14T04:10:26;7.55;;;6.72;;
9729;SDS011;4904;49.152;11.004;2023-05-14T04:12:54;7.00;;;6.40;;
9729;SDS011;4904;49.152;11.004;2023-05-14T04:15:21;7.28;;;6.57;;
9729;SDS011;4904;49.152;11.004;2023-05-14T04:17:48;7.68;;;6.80;;
9729;SDS011;4904;49.152;11.004;2023-05-14T04:20:15;7.03;;;6.25;;
9729;SDS011;4904;49.152;11.004;2023-05-14T04:22:43;7.43;;;6.70;;
9729;SDS011;4904;49.152;11.004;2023-05-14T04:25:09;8.25;;;6.82;;
9729;SDS011;4904;49.152;11.004;2023-05-14T04:27:36;7.85;;;7.10;;
9729;SDS011;4904;49.152;11.004;2023-05-14T04:30:05;8.13;;;7.28;;
9729;SDS011;4904;49.152;11.004;2023-05-14T04:32:33;8.82;;;7.53;;
9729;SDS011;4904;49.152;11.004;2023-05-14T04:35:00;8.48;;;7.75;;
9729;SDS011;4904;49.152;11.004;2023-05-14T04:37:28;7.65;;;6.93;;
9729;SDS011;4904;49.152;11.004;2023-05-14T04:39:55;8.13;;;7.03;;
9729;SDS011;4904;49.152;11.004;2023-05-14T04:42:22;8.85;;;7.95;;
9729;SDS011;4904;49.152;11.004;2023-05-14T04:44:49;8.80;;;7.90;;
9729;SDS011;4904;49.152;11.004;2023-05-14T04:47:17;8.40;;;7.60;;
9729;SDS011;4904;49.152;11.004;2023-05-14T04:49:45;8.40;;;7.63;;
9729;SDS011;4904;49.152;11.004;2023-05-14T04:52:12;9.65;;;8.15;;
9729;SDS011;4904;49.152;11.004;2023-05-14T04:54:39;8.32;;;7.63;;
9729;SDS011;4904;49.152;11.004;2023-05-14T04:57:06;9.07;;;8.27;;
9729;SDS011;4904;49.152;11.004;2023-05-14T04:59:32;9.57;;;8.68;;
9729;SDS011;4904;49.152;11.004;2023-05-14T05:01:59;8.73;;;7.93;;
9729;SDS011;4904;49.152;11.004;2023-05-14T05:04:27;8.18;;;7.32;;
9729;SDS011;4904;49.152;11.004;2023-05-14T05:06:54;9.45;;;7.63;;
9729;SDS011;4904;49.152;11.004;2023-05-14T05:09:21;7.82;;;7.10;;
9729;SDS011;4904;49.152;11.004;2023-05-14T05:11:48;8.75;;;7.95;;
9729;SDS011;4904;49.152;11.004;2023-05-14T05:14:15;9.18;;;8.10;;
9729;SDS011;4904;49.152;11.004;2023-05-14T05:16:42;8.43;;;7.65;;
9729;SDS011;4904;49.152;11.004;2023-05-14T05:19:09;10.30;;;8.55;;
9729;SDS011;4904;49.152;11.004;2023-05-14T05:21:37;9.27;;;8.38;;
9729;SDS011;4904;49.152;11.004;2023-05-14T05:24:05;8.77;;;7.85;;
9729;SDS011;4904;49.152;11.004;2023-05-14T05:26:32;8.40;;;7.63;;
9729;SDS011;4904;49.152;11.004;2023-05-14T05:29:00;7.82;;;7.13;;
9729;SDS011;4904;49.152;11.004;2023-05-14T05:31:27;8.27;;;7.45;;
9729;SDS011;4904;49.152;11.004;2023-05-14T05:33:54;8.75;;;7.90;;
9729;SDS011;4904;49.152;11.004;2023-05-14T05:36:21;8.60;;;7.80;;
9729;SDS011;4904;49.152;11.004;2023-05-14T05:38:50;8.65;;;7.75;;
9729;SDS011;4904;49.152;11.004;2023-05-14T05:41:17;8.65;;;7.40;;
9729;SDS011;4904;49.152;11.004;2023-05-14T05:43:44;8.45;;;7.50;;
9729;SDS011;4904;49.152;11.004;2023-05-14T05:46:10;8.55;;;7.65;;
9729;SDS011;4904;49.152;11.004;2023-05-14T05:48:37;8.10;;;7.32;;
9729;SDS011;4904;49.152;11.004;2023-05-14T05:51:04;8.40;;;7.60;;
9729;SDS011;4904;49.152;11.004;2023-05-14T05:53:31;9.35;;;8.48;;
9729;SDS011;4904;49.152;11.004;2023-05-14T05:55:59;8.23;;;7.43;;
9729;SDS011;4904;49.152;11.004;2023-05-14T05:58:26;8.68;;;7.88;;
9729;SDS011;4904;49.152;11.004;2023-05-14T06:00:53;9.27;;;8.40;;
9729;SDS011;4904;49.152;11.004;2023-05-14T06:03:21;7.75;;;7.05;;
9729;SDS011;4904;49.152;11.004;2023-05-14T06:05:48;7.97;;;7.25;;
9729;SDS011;4904;49.152;11.004;2023-05-14T06:08:16;8.25;;;7.55;;
9729;SDS011;4904;49.152;11.004;2023-05-14T06:10:43;7.75;;;7.05;;
9729;SDS011;4904;49.152;11.004;2023-05-14T06:13:11;7.97;;;7.28;;
9729;SDS011;4904;49.152;11.004;2023-05-14T06:15:38;9.00;;;8.13;;
9729;SDS011;4904;49.152;11.004;2023-05-14T06:18:05;27.88;;;22.63;;
9729;SDS011;4904;49.152;11.004;2023-05-14T06:20:32;18.25;;;16.20;;
9729;SDS011;4904;49.152;11.004;2023-05-14T06:22:59;8.02;;;7.30;;
9729;SDS011;4904;49.152;11.004;2023-05-14T06:25:26;9.90;;;7.32;;
9729;SDS011;4904;49.152;11.004;2023-05-14T06:27:53;7.82;;;7.13;;
9729;SDS011;4904;49.152;11.004;2023-05-14T06:30:21;7.57;;;6.90;;
9729;SDS011;4904;49.152;11.004;2023-05-14T06:32:48;7.15;;;6.50;;
9729;SDS011;4904;49.152;11.004;2023-05-14T06:35:15;8.65;;;7.85;;
9729;SDS011;4904;49.152;11.004;2023-05-14T06:37:43;7.35;;;6.65;;
9729;SDS011;4904;49.152;11.004;2023-05-14T06:40:10;7.85;;;7.15;;
9729;SDS011;4904;49.152;11.004;2023-05-14T06:42:39;8.23;;;7.40;;
9729;SDS011;4904;49.152;11.004;2023-05-14T06:45:06;7.22;;;6.53;;
9729;SDS011;4904;49.152;11.004;2023-05-14T06:47:35;8.50;;;7.03;;
9729;SDS011;4904;49.152;11.004;2023-05-14T06:50:02;7.38;;;6.65;;
9729;SDS011;4904;49.152;11.004;2023-05-14T06:52:29;7.38;;;6.68;;
9729;SDS011;4904;49.152;11.004;2023-05-14T06:54:56;6.93;;;6.22;;
9729;SDS011;4904;49.152;11.004;2023-05-14T06:57:23;7.40;;;6.70;;
9729;SDS011;4904;49.152;11.004;2023-05-14T06:59:49;7.50;;;6.80;;
9729;SDS011;4904;49.152;11.004;2023-05-14T07:02:16;7.32;;;5.97;;
9729;SDS011;4904;49.152;11.004;2023-05-14T07:04:44;7.63;;;6.93;;
9729;SDS011;4904;49.152;11.004;2023-05-14T07:07:11;7.00;;;6.30;;
9729;SDS011;4904;49.152;11.004;2023-05-14T07:09:41;7.03;;;6.40;;
9729;SDS011;4904;49.152;11.004;2023-05-14T07:12:08;6.05;;;5.45;;
9729;SDS011;4904;49.152;11.004;2023-05-14T07:14:35;6.35;;;5.72;;
9729;SDS011;4904;49.152;11.004;2023-05-14T07:17:02;6.45;;;5.90;;
9729;SDS011;4904;49.152;11.004;2023-05-14T07:19:29;7.00;;;5.78;;
9729;SDS011;4904;49.152;11.004;2023-05-14T07:21:57;6.43;;;5.75;;
9729;SDS011;4904;49.152;11.004;2023-05-14T07:24:25;5.82;;;5.22;;
9729;SDS011;4904;49.152;11.004;2023-05-14T07:26:51;6.13;;;5.63;;
9729;SDS011;4904;49.152;11.004;2023-05-14T07:29:21;5.72;;;5.20;;
9729;SDS011;4904;49.152;11.004;2023-05-14T07:31:49;6.55;;;5.93;;
9729;SDS011;4904;49.152;11.004;2023-05-14T07:34:15;5.93;;;5.32;;
9729;SDS011;4904;49.152;11.004;2023-05-14T07:36:43;6.05;;;5.55;;
9729;SDS011;4904;49.152;11.004;2023-05-14T07:39:11;6.57;;;5.55;;
9729;SDS011;4904;49.152;11.004;2023-05-14T07:41:38;6.68;;;6.07;;
9729;SDS011;4904;49.152;11.004;2023-05-14T07:44:05;6.32;;;5.72;;
9729;SDS011;4904;49.152;11.004;2023-05-14T07:46:32;7.60;;;5.50;;
9729;SDS011;4904;49.152;11.004;2023-05-14T07:48:58;6.50;;;5.90;;
9729;SDS011;4904;49.152;11.004;2023-05-14T07:51:25;5.70;;;5.20;;
9729;SDS011;4904;49.152;11.004;2023-05-14T07:53:52;5.82;;;5.32;;
9729;SDS011;4904;49.152;11.004;2023-05-14T07:56:21;6.50;;;5.90;;
9729;SDS011;4904;49.152;11.004;2023-05-14T07:58:47;6.43;;;5.20;;
9729;SDS011;4904;49.152;11.004;2023-05-14T08:01:15;6.03;;;4.93;;
9729;SDS011;4904;49.152;11.004;2023-05-14T08:03:42;5.47;;;5.03;;
9729;SDS011;4904;49.152;11.004;2023-05-14T08:06:09;6.15;;;5.55;;
9729;SDS011;4904;49.152;11.004;2023-05-14T08:08:36;6.15;;;5.43;;
9729;SDS011;4904;49.152;11.004;2023-05-14T08:11:03;6.18;;;5.60;;
9729;SDS011;4904;49.152;11.004;2023-05-14T08:13:31;5.50;;;5.00;;
9729;SDS011;4904;49.152;11.004;2023-05-14T08:15:58;5.63;;;5.13;;
9729;SDS011;4904;49.152;11.004;2023-05-14T08:18:25;6.15;;;5.65;;
9729;SDS011;4904;49.152;11.004;2023-05-14T08:20:52;5.90;;;5.40;;
9729;SDS011;4904;49.152;11.004;2023-05-14T08:23:19;5.35;;;4.85;;
9729;SDS011;4904;49.152;11.004;2023-05-14T08:25:46;5.57;;;5.07;;
9729;SDS011;4904;49.152;11.004;2023-05-14T08:28:13;5.72;;;5.22;;
9729;SDS011;4904;49.152;11.004;2023-05-14T08:30:41;5.93;;;5.32;;
9729;SDS011;4904;49.152;11.004;2023-05-14T08:33:08;7.85;;;4.82;;
9729;SDS011;4904;49.152;11.004;2023-05-14T08:35:35;5.20;;;4.80;;
9729;SDS011;4904;49.152;11.004;2023-05-14T08:38:02;5.50;;;5.00;;
9729;SDS011;4904;49.152;11.004;2023-05-14T08:40:29;5.30;;;4.82;;
9729;SDS011;4904;49.152;11.004;2023-05-14T08:42:56;5.82;;;5.32;;
9729;SDS011;4904;49.152;11.004;2023-05-14T08:45:27;6.03;;;5.22;;
9729;SDS011;4904;49.152;11.004;2023-05-14T08:47:59;5.45;;;4.90;;
9729;SDS011;4904;49.152;11.004;2023-05-14T08:50:29;5.97;;;4.90;;
9729;SDS011;4904;49.152;11.004;2023-05-14T08:52:56;4.93;;;4.43;;
9729;SDS011;4904;49.152;11.004;2023-05-14T08:55:23;4.35;;;4.03;;
9729;SDS011;4904;49.152;11.004;2023-05-14T08:57:53;5.07;;;4.68;;
9729;SDS011;4904;49.152;11.004;2023-05-14T09:00:20;5.45;;;4.90;;
9729;SDS011;4904;49.152;11.004;2023-05-14T09:02:47;5.32;;;4.82;;
9729;SDS011;4904;49.152;11.004;2023-05-14T09:05:16;6.95;;;5.45;;
9729;SDS011;4904;49.152;11.004;2023-05-14T09:07:45;6.20;;;4.63;;
9729;SDS011;4904;49.152;11.004;2023-05-14T09:10:12;5.53;;;5.00;;
9729;SDS011;4904;49.152;11.004;2023-05-14T09:12:40;5.28;;;4.70;;
9729;SDS011;4904;49.152;11.004;2023-05-14T09:15:07;5.35;;;4.47;;
9729;SDS011;4904;49.152;11.004;2023-05-14T09:17:34;4.43;;;4.03;;
9729;SDS011;4904;49.152;11.004;2023-05-14T09:20:00;3.83;;;3.53;;
9729;SDS011;4904;49.152;11.004;2023-05-14T09:22:29;4.45;;;4.05;;
9729;SDS011;4904;49.152;11.004;2023-05-14T09:25:03;3.67;;;3.38;;
9729;SDS011;4904;49.152;11.004;2023-05-14T09:27:32;4.80;;;4.32;;
9729;SDS011;4904;49.152;11.004;2023-05-14T09:30:04;4.70;;;4.30;;
9729;SDS011;4904;49.152;11.004;2023-05-14T09:32:35;5.00;;;4.60;;
9729;SDS011;4904;49.152;11.004;2023-05-14T09:35:10;5.10;;;4.60;;
9729;SDS011;4904;49.152;11.004;2023-05-14T09:37:41;4.93;;;4.22;;
9729;SDS011;4904;49.152;11.004;2023-05-14T09:40:17;4.60;;;4.20;;
9729;SDS011;4904;49.152;11.004;2023-05-14T09:42:44;4.47;;;4.10;;
9729;SDS011;4904;49.152;11.004;2023-05-14T09:45:12;3.75;;;3.40;;
9729;SDS011;4904;49.152;11.004;2023-05-14T09:47:39;3.65;;;3.35;;
9729;SDS011;4904;49.152;11.004;2023-05-14T09:50:06;4.47;;;3.63;;
9729;SDS011;4904;49.152;11.004;2023-05-14T09:52:34;3.30;;;3.00;;
9729;SDS011;4904;49.152;11.004;2023-05-14T09:55:01;3.63;;;3.33;;
9729;SDS011;4904;49.152;11.004;2023-05-14T09:57:29;3.60;;;3.30;;
9729;SDS011;4904;49.152;11.004;2023-05-14T09:59:56;4.70;;;3.33;;
9729;SDS011;4904;49.152;11.004;2023-05-14T10:02:24;3.45;;;3.15;;
9729;SDS011;4904;49.152;11.004;2023-05-14T10:04:53;3.67;;;3.38;;
9729;SDS011;4904;49.152;11.004;2023-05-14T10:07:24;3.00;;;2.80;;
9729;SDS011;4904;49.152;11.004;2023-05-14T10:09:56;3.28;;;2.80;;
9729;SDS011;4904;49.152;11.004;2023-05-14T10:12:27;3.55;;;3.25;;
9729;SDS011;4904;49.152;11.004;2023-05-14T10:14:59;3.35;;;3.05;;
9729;SDS011;4904;49.152;11.004;2023-05-14T10:17:30;3.55;;;2.72;;
9729;SDS011;4904;49.152;11.004;2023-05-14T10:19:59;2.72;;;2.50;;
9729;SDS011;4904;49.152;11.004;2023-05-14T10:22:30;3.40;;;3.13;;
9729;SDS011;4904;49.152;11.004;2023-05-14T10:24:59;3.58;;;3.10;;
9729;SDS011;4904;49.152;11.004;2023-05-14T10:27:29;3.50;;;3.20;;
9729;SDS011;4904;49.152;11.004;2023-05-14T10:29:56;3.63;;;3.28;;
9729;SDS011;4904;49.152;11.004;2023-05-14T10:32:23;3.40;;;3.17;;
9729;SDS011;4904;49.152;11.004;2023-05-14T10:34:51;5.30;;;3.13;;
9729;SDS011;4904;49.152;11.004;2023-05-14T10:37:19;3.47;;;3.03;;
9729;SDS011;4904;49.152;11.004;2023-05-14T10:39:48;3.45;;;3.15;;
9729;SDS011;4904;49.152;11.004;2023-05-14T10:42:17;3.50;;;3.20;;
9729;SDS011;4904;49.152;11.004;2023-05-14T10:44:51;3.63;;;3.33;;
9729;SDS011;4904;49.152;11.004;2023-05-14T10:47:20;3.17;;;2.97;;
9729;SDS011;4904;49.152;11.004;2023-05-14T10:49:47;3.70;;;3.40;;
9729;SDS011;4904;49.152;11.004;2023-05-14T10:52:17;3.42;;;3.13;;
9729;SDS011;4904;49.152;11.004;2023-05-14T10:54:47;3.80;;;3.38;;
9729;SDS011;4904;49.152;11.004;2023-05-14T10:57:16;3.60;;;3.15;;
9729;SDS011;4904;49.152;11.004;2023-05-14T10:59:45;4.13;;;3.33;;
9729;SDS011;4904;49.152;11.004;2023-05-14T11:02:23;3.20;;;2.90;;
9729;SDS011;4904;49.152;11.004;2023-05-14T11:04:52;3.28;;;2.95;;
9729;SDS011;4904;49.152;11.004;2023-05-14T11:07:22;3.75;;;3.45;;
9729;SDS011;4904;49.152;11.004;2023-05-14T11:09:52;3.80;;;3.50;;
9729;SDS011;4904;49.152;11.004;2023-05-14T11:12:24;3.75;;;3.33;;
9729;SDS011;4904;49.152;11.004;2023-05-14T11:14:52;3.75;;;2.80;;
9729;SDS011;4904;49.152;11.004;2023-05-14T11:17:19;3.30;;;3.10;;
9729;SDS011;4904;49.152;11.004;2023-05-14T11:19:48;3.30;;;3.05;;
9729;SDS011;4904;49.152;11.004;2023-05-14T11:22:15;3.40;;;3.17;;
9729;SDS011;4904;49.152;11.004;2023-05-14T11:24:42;2.97;;;2.78;;
9729;SDS011;4904;49.152;11.004;2023-05-14T11:27:09;3.47;;;3.17;;
9729;SDS011;4904;49.152;11.004;2023-05-14T11:29:36;3.72;;;3.42;;
9729;SDS011;4904;49.152;11.004;2023-05-14T11:32:04;3.38;;;3.10;;
9729;SDS011;4904;49.152;11.004;2023-05-14T11:34:31;3.72;;;3.42;;
9729;SDS011;4904;49.152;11.004;2023-05-14T11:37:02;3.75;;;3.45;;
9729;SDS011;4904;49.152;11.004;2023-05-14T11:39:29;3.50;;;3.20;;
9729;SDS011;4904;49.152;11.004;2023-05-14T11:41:57;3.58;;;3.28;;
9729;SDS011;4904;49.152;11.004;2023-05-14T11:44:24;4.93;;;3.67;;
9729;SDS011;4904;49.152;11.004;2023-05-14T11:46:54;6.72;;;3.47;;
9729;SDS011;4904;49.152;11.004;2023-05-14T11:49:22;4.80;;;4.40;;
9729;SDS011;4904;49.152;11.004;2023-05-14T11:51:49;3.95;;;3.65;;
9729;SDS011;4904;49.152;11.004;2023-05-14T11:54:17;3.63;;;3.33;;
9729;SDS011;4904;49.152;11.004;2023-05-14T11:56:48;4.13;;;3.72;;
9729;SDS011;4904;49.152;11.004;2023-05-14T11:59:16;4.32;;;3.47;;
9729;SDS011;4904;49.152;11.004;2023-05-14T12:01:43;4.28;;;3.88;;
9729;SDS011;4904;49.152;11.004;2023-05-14T12:04:11;4.00;;;3.70;;
9729;SDS011;4904;49.152;11.004;2023-05-14T12:06:38;3.70;;;3.40;;
9729;SDS011;4904;49.152;11.004;2023-05-14T12:09:05;3.40;;;3.10;;
9729;SDS011;4904;49.152;11.004;2023-05-14T12:11:35;3.42;;;3.17;;
9729;SDS011;4904;49.152;11.004;2023-05-14T12:14:09;3.42;;;3.13;;
9729;SDS011;4904;49.152;11.004;2023-05-14T12:16:38;4.00;;;3.70;;
9729;SDS011;4904;49.152;11.004;2023-05-14T12:19:07;3.90;;;3.40;;
9729;SDS011;4904;49.152;11.004;2023-05-14T12:21:35;3.97;;;3.67;;
9729;SDS011;4904;49.152;11.004;2023-05-14T12:24:03;4.75;;;3.47;;
9729;SDS011;4904;49.152;11.004;2023-05-14T12:26:31;3.92;;;3.28;;
9729;SDS011;4904;49.152;11.004;2023-05-14T12:29:00;3.70;;;3.40;;
9729;SDS011;4904;49.152;11.004;2023-05-14T12:31:28;3.60;;;3.30;;
9729;SDS011;4904;49.152;11.004;2023-05-14T12:33:55;3.28;;;3.05;;
9729;SDS011;4904;49.152;11.004;2023-05-14T12:36:22;3.70;;;3.40;;
9729;SDS011;4904;49.152;11.004;2023-05-14T12:38:49;2.97;;;2.78;;
9729;SDS011;4904;49.152;11.004;2023-05-14T12:41:22;3.45;;;3.15;;
9729;SDS011;4904;49.152;11.004;2023-05-14T12:43:48;3.53;;;3.22;;
9729;SDS011;4904;49.152;11.004;2023-05-14T12:46:17;3.67;;;3.33;;
9729;SDS011;4904;49.152;11.004;2023-05-14T12:48:44;3.15;;;2.90;;
9729;SDS011;4904;49.152;11.004;2023-05-14T12:51:11;3.75;;;3.45;;
9729;SDS011;4904;49.152;11.004;2023-05-14T12:53:38;4.60;;;4.20;;
9729;SDS011;4904;49.152;11.004;2023-05-14T12:56:05;3.88;;;3.33;;
9729;SDS011;4904;49.152;11.004;2023-05-14T12:58:32;3.53;;;3.22;;
9729;SDS011;4904;49.152;11.004;2023-05-14T13:00:59;3.53;;;3.22;;
9729;SDS011;4904;49.152;11.004;2023-05-14T13:03:27;3.45;;;3.20;;
9729;SDS011;4904;49.152;11.004;2023-05-14T13:05:54;3.58;;;3.28;;
9729;SDS011;4904;49.152;11.004;2023-05-14T13:08:21;3.53;;;3.30;;
9729;SDS011;4904;49.152;11.004;2023-05-14T13:10:49;5.13;;;4.65;;
9729;SDS011;4904;49.152;11.004;2023-05-14T13:13:16;3.75;;;3.45;;
9729;SDS011;4904;49.152;11.004;2023-05-14T13:15:43;5.15;;;3.67;;
9729;SDS011;4904;49.152;11.004;2023-05-14T13:18:11;3.17;;;2.97;;
9729;SDS011;4904;49.152;11.004;2023-05-14T13:20:39;3.15;;;2.90;;
9729;SDS011;4904;49.152;11.004;2023-05-14T13:23:06;3.25;;;3.03;;
9729;SDS011;4904;49.152;11.004;2023-05-14T13:25:34;3.33;;;3.03;;
9729;SDS011;4904;49.152;11.004;2023-05-14T13:28:01;4.22;;;3.80;;
9729;SDS011;4904;49.152;11.004;2023-05-14T13:30:28;3.83;;;3.53;;
9729;SDS011;4904;49.152;11.004;2023-05-14T13:32:56;3.70;;;3.50;;
9729;SDS011;4904;49.152;11.004;2023-05-14T13:35:23;4.13;;;3.28;;
9729;SDS011;4904;49.152;11.004;2023-05-14T13:37:51;3.50;;;3.20;;
9729;SDS011;4904;49.152;11.004;2023-05-14T13:40:18;4.00;;;3.60;;
9729;SDS011;4904;49.152;11.004;2023-05-14T13:42:45;3.90;;;3.60;;
9729;SDS011;4904;49.152;11.004;2023-05-14T13:45:11;5.25;;;4.75;;
9729;SDS011;4904;49.152;11.004;2023-05-14T13:47:38;4.05;;;3.65;;
9729;SDS011;4904;49.152;11.004;2023-05-14T13:50:06;4.18;;;3.70;;
9729;SDS011;4904;49.152;11.004;2023-05-14T13:52:33;4.65;;;3.30;;
9729;SDS011;4904;49.152;11.004;2023-05-14T13:55:01;3.47;;;3.25;;
9729;SDS011;4904;49.152;11.004;2023-05-14T13:57:28;3.45;;;3.15;;
9729;SDS011;4904;49.152;11.004;2023-05-14T13:59:55;3.45;;;3.15;;
9729;SDS011;4904;49.152;11.004;2023-05-14T14:02:22;3.53;;;3.22;;
9729;SDS011;4904;49.152;11.004;2023-05-14T14:04:49;3.90;;;3.50;;
9729;SDS011;4904;49.152;11.004;2023-05-14T14:07:16;3.20;;;2.90;;
9729;SDS011;4904;49.152;11.004;2023-05-14T14:09:42;3.80;;;3.50;;
9729;SDS011;4904;49.152;11.004;2023-05-14T14:12:11;3.42;;;3.17;;
9729;SDS011;4904;49.152;11.004;2023-05-14T14:14:38;3.03;;;2.83;;
9729;SDS011;4904;49.152;11.004;2023-05-14T14:17:05;3.03;;;2.83;;
9729;SDS011;4904;49.152;11.004;2023-05-14T14:19:33;3.67;;;2.63;;
9729;SDS011;4904;49.152;11.004;2023-05-14T14:21:59;2.90;;;2.70;;
9729;SDS011;4904;49.152;11.004;2023-05-14T14:24:26;2.97;;;2.55;;
9729;SDS011;4904;49.152;11.004;2023-05-14T14:26:53;3.75;;;3.10;;
9729;SDS011;4904;49.152;11.004;2023-05-14T14:29:22;3.28;;;2.97;;
9729;SDS011;4904;49.152;11.004;2023-05-14T14:31:48;4.72;;;3.00;;
9729;SDS011;4904;49.152;11.004;2023-05-14T14:34:15;3.20;;;2.90;;
9729;SDS011;4904;49.152;11.004;2023-05-14T14:36:42;3.63;;;2.80;;
9729;SDS011;4904;49.152;11.004;2023-05-14T14:39:09;2.95;;;2.75;;
9729;SDS011;4904;49.152;11.004;2023-05-14T14:41:36;3.08;;;2.88;;
9729;SDS011;4904;49.152;11.004;2023-05-14T14:44:03;3.33;;;3.03;;
9729;SDS011;4904;49.152;11.004;2023-05-14T14:46:31;3.20;;;2.92;;
9729;SDS011;4904;49.152;11.004;2023-05-14T14:48:58;3.50;;;2.70;;
9729;SDS011;4904;49.152;11.004;2023-05-14T14:51:25;3.45;;;3.15;;
9729;SDS011;4904;49.152;11.004;2023-05-14T14:53:52;2.95;;;2.70;;
9729;SDS011;4904;49.152;11.004;2023-05-14T14:56:19;3.05;;;2.85;;
9729;SDS011;4904;49.152;11.004;2023-05-14T14:58:46;3.95;;;2.80;;
9729;SDS011;4904;49.152;11.004;2023-05-14T15:01:13;3.88;;;2.47;;
9729;SDS011;4904;49.152;11.004;2023-05-14T15:03:42;2.75;;;2.55;;